sensor_id;sensor_type;location;lat;lon;timestamp;P1;durP1;ratioP1;P2;durP2;ratioP2
16766;SDS011;8501;49.926;8.404;2024-01-30T00:01:01;47.13;;;28.40;;
16766;SDS011;8501;49.926;8.404;2024-01-30T00:03:26;44.87;;;26.80;;
16766;SDS011;8501;49.926;8.404;2024-01-30T00:05:54;47.37;;;28.13;;
16766;SDS011;8501;49.926;8.404;2024-01-30T00:08:20;48.97;;;26.80;;
16766;SDS011;8501;49.926;8.404;2024-01-30T00:10:45;46.73;;;28.43;;
16766;SDS011;8501;49.926;8.404;2024-01-30T00:13:11;44.10;;;27.27;;
16766;SDS011;8501;49.926;8.404;2024-01-30T00:15:38;51.57;;;28.63;;
16766;SDS011;8501;49.926;8.404;2024-01-30T00:18:04;51.13;;;29.43;;
16766;SDS011;8501;49.926;8.404;2024-01-30T00:20:30;49.00;;;29.67;;
16766;SDS011;8501;49.926;8.404;2024-01-30T00:22:55;51.23;;;29.27;;
16766;SDS011;8501;49.926;8.404;2024-01-30T00:25:21;54.03;;;29.83;;
16766;SDS011;8501;49.926;8.404;2024-01-30T00:27:46;55.20;;;31.87;;
16766;SDS011;8501;49.926;8.404;2024-01-30T00:30:12;57.87;;;31.30;;
16766;SDS011;8501;49.926;8.404;2024-01-30T00:32:37;56.90;;;31.63;;
16766;SDS011;8501;49.926;8.404;2024-01-30T00:35:03;58.27;;;31.70;;
16766;SDS011;8501;49.926;8.404;2024-01-30T00:37:29;54.13;;;31.37;;
16766;SDS011;8501;49.926;8.404;2024-01-30T00:39:56;61.43;;;32.37;;
16766;SDS011;8501;49.926;8.404;2024-01-30T00:42:21;55.47;;;32.97;;
16766;SDS011;8501;49.926;8.404;2024-01-30T00:44:48;53.87;;;32.33;;
16766;SDS011;8501;49.926;8.404;2024-01-30T00:47:14;58.90;;;33.30;;
16766;SDS011;8501;49.926;8.404;2024-01-30T00:49:40;60.13;;;33.10;;
16766;SDS011;8501;49.926;8.404;2024-01-30T00:52:05;54.03;;;33.17;;
16766;SDS011;8501;49.926;8.404;2024-01-30T00:54:31;57.30;;;33.07;;
16766;SDS011;8501;49.926;8.404;2024-01-30T00:56:56;54.80;;;31.70;;
16766;SDS011;8501;49.926;8.404;2024-01-30T00:59:22;51.73;;;30.93;;
16766;SDS011;8501;49.926;8.404;2024-01-30T01:01:47;55.00;;;29.90;;
16766;SDS011;8501;49.926;8.404;2024-01-30T01:04:13;52.37;;;28.67;;
16766;SDS011;8501;49.926;8.404;2024-01-30T01:06:38;50.67;;;28.77;;
16766;SDS011;8501;49.926;8.404;2024-01-30T01:09:04;45.77;;;26.63;;
16766;SDS011;8501;49.926;8.404;2024-01-30T01:11:30;46.00;;;27.87;;
16766;SDS011;8501;49.926;8.404;2024-01-30T01:13:56;44.23;;;27.10;;
16766;SDS011;8501;49.926;8.404;2024-01-30T01:16:21;45.67;;;27.63;;
16766;SDS011;8501;49.926;8.404;2024-01-30T01:18:47;46.67;;;28.17;;
16766;SDS011;8501;49.926;8.404;2024-01-30T01:21:12;52.27;;;29.93;;
16766;SDS011;8501;49.926;8.404;2024-01-30T01:23:38;55.70;;;30.30;;
16766;SDS011;8501;49.926;8.404;2024-01-30T01:26:04;51.77;;;30.00;;
16766;SDS011;8501;49.926;8.404;2024-01-30T01:28:30;47.97;;;28.87;;
16766;SDS011;8501;49.926;8.404;2024-01-30T01:30:56;45.20;;;28.60;;
16766;SDS011;8501;49.926;8.404;2024-01-30T01:33:24;51.43;;;29.67;;
16766;SDS011;8501;49.926;8.404;2024-01-30T01:35:49;57.77;;;29.63;;
16766;SDS011;8501;49.926;8.404;2024-01-30T01:38:15;54.03;;;29.27;;
16766;SDS011;8501;49.926;8.404;2024-01-30T01:40:40;46.50;;;27.50;;
16766;SDS011;8501;49.926;8.404;2024-01-30T01:43:06;44.13;;;26.97;;
16766;SDS011;8501;49.926;8.404;2024-01-30T01:45:31;47.43;;;26.33;;
16766;SDS011;8501;49.926;8.404;2024-01-30T01:47:57;45.03;;;25.30;;
16766;SDS011;8501;49.926;8.404;2024-01-30T01:50:22;46.60;;;27.87;;
16766;SDS011;8501;49.926;8.404;2024-01-30T01:52:49;45.97;;;26.53;;
16766;SDS011;8501;49.926;8.404;2024-01-30T01:55:15;50.10;;;26.70;;
16766;SDS011;8501;49.926;8.404;2024-01-30T01:57:47;46.47;;;26.43;;
16766;SDS011;8501;49.926;8.404;2024-01-30T02:00:12;50.07;;;26.93;;
16766;SDS011;8501;49.926;8.404;2024-01-30T02:02:39;46.70;;;26.57;;
16766;SDS011;8501;49.926;8.404;2024-01-30T02:05:04;45.47;;;27.53;;
16766;SDS011;8501;49.926;8.404;2024-01-30T02:07:30;48.53;;;27.23;;
16766;SDS011;8501;49.926;8.404;2024-01-30T02:09:56;51.60;;;28.83;;
16766;SDS011;8501;49.926;8.404;2024-01-30T02:12:22;44.90;;;27.23;;
16766;SDS011;8501;49.926;8.404;2024-01-30T02:14:48;44.33;;;26.50;;
16766;SDS011;8501;49.926;8.404;2024-01-30T02:17:14;46.37;;;26.17;;
16766;SDS011;8501;49.926;8.404;2024-01-30T02:19:40;49.10;;;27.37;;
16766;SDS011;8501;49.926;8.404;2024-01-30T02:22:06;44.33;;;26.03;;
16766;SDS011;8501;49.926;8.404;2024-01-30T02:24:32;39.07;;;24.73;;
16766;SDS011;8501;49.926;8.404;2024-01-30T02:26:58;47.13;;;27.03;;
16766;SDS011;8501;49.926;8.404;2024-01-30T02:29:23;46.07;;;26.77;;
16766;SDS011;8501;49.926;8.404;2024-01-30T02:31:49;47.73;;;27.10;;
16766;SDS011;8501;49.926;8.404;2024-01-30T02:34:14;46.73;;;26.90;;
16766;SDS011;8501;49.926;8.404;2024-01-30T02:36:43;43.30;;;26.77;;
16766;SDS011;8501;49.926;8.404;2024-01-30T02:39:09;46.53;;;27.37;;
16766;SDS011;8501;49.926;8.404;2024-01-30T02:41:35;47.97;;;26.93;;
16766;SDS011;8501;49.926;8.404;2024-01-30T02:44:01;43.53;;;26.37;;
16766;SDS011;8501;49.926;8.404;2024-01-30T02:46:29;43.27;;;26.20;;
16766;SDS011;8501;49.926;8.404;2024-01-30T02:48:55;42.00;;;25.73;;
16766;SDS011;8501;49.926;8.404;2024-01-30T02:51:20;42.37;;;24.77;;
16766;SDS011;8501;49.926;8.404;2024-01-30T02:53:46;39.30;;;24.60;;
16766;SDS011;8501;49.926;8.404;2024-01-30T02:56:11;36.43;;;22.47;;
16766;SDS011;8501;49.926;8.404;2024-01-30T02:58:38;36.83;;;21.83;;
16766;SDS011;8501;49.926;8.404;2024-01-30T03:01:04;33.03;;;20.93;;
16766;SDS011;8501;49.926;8.404;2024-01-30T03:03:30;38.60;;;21.93;;
16766;SDS011;8501;49.926;8.404;2024-01-30T03:05:55;38.53;;;21.80;;
16766;SDS011;8501;49.926;8.404;2024-01-30T03:08:21;40.37;;;24.17;;
16766;SDS011;8501;49.926;8.404;2024-01-30T03:10:46;41.07;;;22.23;;
16766;SDS011;8501;49.926;8.404;2024-01-30T03:13:12;43.93;;;24.67;;
16766;SDS011;8501;49.926;8.404;2024-01-30T03:15:37;47.93;;;25.37;;
16766;SDS011;8501;49.926;8.404;2024-01-30T03:18:03;46.17;;;25.70;;
16766;SDS011;8501;49.926;8.404;2024-01-30T03:20:29;44.50;;;25.60;;
16766;SDS011;8501;49.926;8.404;2024-01-30T03:22:55;48.07;;;27.27;;
16766;SDS011;8501;49.926;8.404;2024-01-30T03:25:21;41.33;;;25.37;;
16766;SDS011;8501;49.926;8.404;2024-01-30T03:27:46;41.27;;;24.37;;
16766;SDS011;8501;49.926;8.404;2024-01-30T03:30:12;42.43;;;24.63;;
16766;SDS011;8501;49.926;8.404;2024-01-30T03:32:37;45.47;;;25.37;;
16766;SDS011;8501;49.926;8.404;2024-01-30T03:35:03;41.40;;;24.03;;
16766;SDS011;8501;49.926;8.404;2024-01-30T03:37:29;38.03;;;23.40;;
16766;SDS011;8501;49.926;8.404;2024-01-30T03:39:54;38.13;;;24.23;;
16766;SDS011;8501;49.926;8.404;2024-01-30T03:42:20;36.37;;;23.40;;
16766;SDS011;8501;49.926;8.404;2024-01-30T03:44:47;38.20;;;22.70;;
16766;SDS011;8501;49.926;8.404;2024-01-30T03:47:13;38.67;;;23.93;;
16766;SDS011;8501;49.926;8.404;2024-01-30T03:49:38;39.43;;;22.67;;
16766;SDS011;8501;49.926;8.404;2024-01-30T03:52:04;36.57;;;22.10;;
16766;SDS011;8501;49.926;8.404;2024-01-30T03:54:30;38.13;;;23.27;;
16766;SDS011;8501;49.926;8.404;2024-01-30T03:56:55;40.50;;;23.97;;
16766;SDS011;8501;49.926;8.404;2024-01-30T03:59:20;38.67;;;23.37;;
16766;SDS011;8501;49.926;8.404;2024-01-30T04:01:49;38.30;;;23.07;;
16766;SDS011;8501;49.926;8.404;2024-01-30T04:04:16;39.80;;;23.73;;
16766;SDS011;8501;49.926;8.404;2024-01-30T04:06:43;40.00;;;25.00;;
16766;SDS011;8501;49.926;8.404;2024-01-30T04:09:09;41.47;;;24.50;;
16766;SDS011;8501;49.926;8.404;2024-01-30T04:11:35;42.70;;;26.53;;
16766;SDS011;8501;49.926;8.404;2024-01-30T04:14:00;42.90;;;26.23;;
16766;SDS011;8501;49.926;8.404;2024-01-30T04:16:26;43.27;;;26.07;;
16766;SDS011;8501;49.926;8.404;2024-01-30T04:18:51;41.87;;;26.03;;
16766;SDS011;8501;49.926;8.404;2024-01-30T04:21:17;43.07;;;25.23;;
16766;SDS011;8501;49.926;8.404;2024-01-30T04:23:43;40.87;;;25.17;;
16766;SDS011;8501;49.926;8.404;2024-01-30T04:26:08;36.97;;;23.67;;
16766;SDS011;8501;49.926;8.404;2024-01-30T04:28:34;36.27;;;23.80;;
16766;SDS011;8501;49.926;8.404;2024-01-30T04:30:59;41.97;;;25.73;;
16766;SDS011;8501;49.926;8.404;2024-01-30T04:33:25;44.03;;;25.73;;
16766;SDS011;8501;49.926;8.404;2024-01-30T04:35:50;44.10;;;25.40;;
16766;SDS011;8501;49.926;8.404;2024-01-30T04:38:16;44.60;;;25.33;;
16766;SDS011;8501;49.926;8.404;2024-01-30T04:40:42;45.30;;;25.30;;
16766;SDS011;8501;49.926;8.404;2024-01-30T04:43:08;42.47;;;25.80;;
16766;SDS011;8501;49.926;8.404;2024-01-30T04:45:33;47.17;;;26.03;;
16766;SDS011;8501;49.926;8.404;2024-01-30T04:47:59;46.60;;;25.97;;
16766;SDS011;8501;49.926;8.404;2024-01-30T04:50:24;45.97;;;26.67;;
16766;SDS011;8501;49.926;8.404;2024-01-30T04:52:51;47.73;;;27.50;;
16766;SDS011;8501;49.926;8.404;2024-01-30T04:55:17;48.33;;;27.20;;
16766;SDS011;8501;49.926;8.404;2024-01-30T04:57:43;51.53;;;26.77;;
16766;SDS011;8501;49.926;8.404;2024-01-30T05:00:08;52.43;;;27.50;;
16766;SDS011;8501;49.926;8.404;2024-01-30T05:02:34;48.37;;;27.70;;
16766;SDS011;8501;49.926;8.404;2024-01-30T05:05:00;74.60;;;33.97;;
16766;SDS011;8501;49.926;8.404;2024-01-30T05:07:26;89.50;;;40.43;;
16766;SDS011;8501;49.926;8.404;2024-01-30T05:09:51;75.30;;;35.30;;
16766;SDS011;8501;49.926;8.404;2024-01-30T05:12:17;70.20;;;34.33;;
16766;SDS011;8501;49.926;8.404;2024-01-30T05:14:42;59.30;;;28.80;;
16766;SDS011;8501;49.926;8.404;2024-01-30T05:17:08;54.23;;;28.30;;
16766;SDS011;8501;49.926;8.404;2024-01-30T05:19:35;60.77;;;27.33;;
16766;SDS011;8501;49.926;8.404;2024-01-30T05:22:01;56.40;;;29.17;;
16766;SDS011;8501;49.926;8.404;2024-01-30T05:24:26;55.03;;;28.87;;
16766;SDS011;8501;49.926;8.404;2024-01-30T05:26:52;57.13;;;31.13;;
16766;SDS011;8501;49.926;8.404;2024-01-30T05:29:17;55.13;;;30.17;;
16766;SDS011;8501;49.926;8.404;2024-01-30T05:31:43;56.80;;;29.83;;
16766;SDS011;8501;49.926;8.404;2024-01-30T05:34:08;50.97;;;29.37;;
16766;SDS011;8501;49.926;8.404;2024-01-30T05:36:34;53.63;;;30.70;;
16766;SDS011;8501;49.926;8.404;2024-01-30T05:39:00;48.63;;;28.80;;
16766;SDS011;8501;49.926;8.404;2024-01-30T05:41:26;51.37;;;28.80;;
16766;SDS011;8501;49.926;8.404;2024-01-30T05:43:51;48.10;;;27.20;;
16766;SDS011;8501;49.926;8.404;2024-01-30T05:46:17;52.17;;;28.03;;
16766;SDS011;8501;49.926;8.404;2024-01-30T05:48:42;54.40;;;29.90;;
16766;SDS011;8501;49.926;8.404;2024-01-30T05:51:08;56.50;;;28.50;;
16766;SDS011;8501;49.926;8.404;2024-01-30T05:53:34;63.77;;;27.23;;
16766;SDS011;8501;49.926;8.404;2024-01-30T05:56:03;41.20;;;24.37;;
16766;SDS011;8501;49.926;8.404;2024-01-30T05:58:29;45.03;;;26.27;;
16766;SDS011;8501;49.926;8.404;2024-01-30T06:00:56;44.07;;;26.77;;
16766;SDS011;8501;49.926;8.404;2024-01-30T06:03:22;44.73;;;25.07;;
16766;SDS011;8501;49.926;8.404;2024-01-30T06:05:48;44.33;;;26.07;;
16766;SDS011;8501;49.926;8.404;2024-01-30T06:08:13;56.50;;;30.63;;
16766;SDS011;8501;49.926;8.404;2024-01-30T06:10:39;76.73;;;38.50;;
16766;SDS011;8501;49.926;8.404;2024-01-30T06:13:05;58.93;;;32.30;;
16766;SDS011;8501;49.926;8.404;2024-01-30T06:15:30;47.13;;;27.40;;
16766;SDS011;8501;49.926;8.404;2024-01-30T06:17:57;45.90;;;27.23;;
16766;SDS011;8501;49.926;8.404;2024-01-30T06:20:23;47.50;;;28.47;;
16766;SDS011;8501;49.926;8.404;2024-01-30T06:22:49;47.93;;;27.73;;
16766;SDS011;8501;49.926;8.404;2024-01-30T06:25:15;48.80;;;27.63;;
16766;SDS011;8501;49.926;8.404;2024-01-30T06:27:41;52.37;;;28.67;;
16766;SDS011;8501;49.926;8.404;2024-01-30T06:30:07;54.03;;;30.87;;
16766;SDS011;8501;49.926;8.404;2024-01-30T06:32:33;50.07;;;29.87;;
16766;SDS011;8501;49.926;8.404;2024-01-30T06:35:00;49.83;;;30.60;;
16766;SDS011;8501;49.926;8.404;2024-01-30T06:37:26;55.23;;;31.20;;
16766;SDS011;8501;49.926;8.404;2024-01-30T06:39:52;47.90;;;29.03;;
16766;SDS011;8501;49.926;8.404;2024-01-30T06:42:18;48.33;;;28.73;;
16766;SDS011;8501;49.926;8.404;2024-01-30T06:44:43;46.30;;;26.97;;
16766;SDS011;8501;49.926;8.404;2024-01-30T06:47:09;45.67;;;25.43;;
16766;SDS011;8501;49.926;8.404;2024-01-30T06:49:35;43.63;;;25.37;;
16766;SDS011;8501;49.926;8.404;2024-01-30T06:52:04;44.97;;;26.43;;
16766;SDS011;8501;49.926;8.404;2024-01-30T06:54:31;48.10;;;27.50;;
16766;SDS011;8501;49.926;8.404;2024-01-30T06:56:57;48.70;;;27.20;;
16766;SDS011;8501;49.926;8.404;2024-01-30T06:59:23;51.17;;;27.57;;
16766;SDS011;8501;49.926;8.404;2024-01-30T07:01:49;53.80;;;28.30;;
16766;SDS011;8501;49.926;8.404;2024-01-30T07:04:14;55.83;;;30.43;;
16766;SDS011;8501;49.926;8.404;2024-01-30T07:06:41;61.03;;;30.83;;
16766;SDS011;8501;49.926;8.404;2024-01-30T07:09:06;60.90;;;31.93;;
16766;SDS011;8501;49.926;8.404;2024-01-30T07:11:32;65.23;;;35.07;;
16766;SDS011;8501;49.926;8.404;2024-01-30T07:13:57;69.87;;;35.57;;
16766;SDS011;8501;49.926;8.404;2024-01-30T07:16:23;69.60;;;35.60;;
16766;SDS011;8501;49.926;8.404;2024-01-30T07:18:49;64.90;;;35.63;;
16766;SDS011;8501;49.926;8.404;2024-01-30T07:21:15;69.67;;;34.77;;
16766;SDS011;8501;49.926;8.404;2024-01-30T07:23:40;57.50;;;31.03;;
16766;SDS011;8501;49.926;8.404;2024-01-30T07:26:07;55.60;;;31.27;;
16766;SDS011;8501;49.926;8.404;2024-01-30T07:28:33;55.07;;;30.23;;
16766;SDS011;8501;49.926;8.404;2024-01-30T07:31:00;61.33;;;31.60;;
16766;SDS011;8501;49.926;8.404;2024-01-30T07:33:26;48.77;;;28.90;;
16766;SDS011;8501;49.926;8.404;2024-01-30T07:35:52;49.70;;;29.53;;
16766;SDS011;8501;49.926;8.404;2024-01-30T07:38:18;58.23;;;32.00;;
16766;SDS011;8501;49.926;8.404;2024-01-30T07:40:43;62.87;;;34.90;;
16766;SDS011;8501;49.926;8.404;2024-01-30T07:43:09;56.50;;;33.43;;
16766;SDS011;8501;49.926;8.404;2024-01-30T07:45:35;53.47;;;31.07;;
16766;SDS011;8501;49.926;8.404;2024-01-30T07:48:02;55.23;;;31.60;;
16766;SDS011;8501;49.926;8.404;2024-01-30T07:50:28;58.43;;;33.47;;
16766;SDS011;8501;49.926;8.404;2024-01-30T07:52:55;52.77;;;30.90;;
16766;SDS011;8501;49.926;8.404;2024-01-30T07:55:21;56.57;;;34.00;;
16766;SDS011;8501;49.926;8.404;2024-01-30T07:57:49;59.73;;;35.27;;
16766;SDS011;8501;49.926;8.404;2024-01-30T08:00:17;67.63;;;37.57;;
16766;SDS011;8501;49.926;8.404;2024-01-30T08:02:43;56.83;;;33.33;;
16766;SDS011;8501;49.926;8.404;2024-01-30T08:05:09;56.40;;;32.70;;
16766;SDS011;8501;49.926;8.404;2024-01-30T08:07:36;53.87;;;32.00;;
16766;SDS011;8501;49.926;8.404;2024-01-30T08:10:01;63.03;;;37.07;;
16766;SDS011;8501;49.926;8.404;2024-01-30T08:12:27;56.83;;;33.77;;
16766;SDS011;8501;49.926;8.404;2024-01-30T08:14:53;51.03;;;31.47;;
16766;SDS011;8501;49.926;8.404;2024-01-30T08:17:19;54.97;;;32.87;;
16766;SDS011;8501;49.926;8.404;2024-01-30T08:19:44;50.33;;;30.80;;
16766;SDS011;8501;49.926;8.404;2024-01-30T08:22:10;46.83;;;29.57;;
16766;SDS011;8501;49.926;8.404;2024-01-30T08:24:36;43.67;;;29.60;;
16766;SDS011;8501;49.926;8.404;2024-01-30T08:27:02;48.40;;;30.97;;
16766;SDS011;8501;49.926;8.404;2024-01-30T08:29:28;55.83;;;35.17;;
16766;SDS011;8501;49.926;8.404;2024-01-30T08:31:53;49.50;;;31.50;;
16766;SDS011;8501;49.926;8.404;2024-01-30T08:34:20;51.63;;;31.73;;
16766;SDS011;8501;49.926;8.404;2024-01-30T08:36:46;50.63;;;32.30;;
16766;SDS011;8501;49.926;8.404;2024-01-30T08:39:11;51.90;;;33.57;;
16766;SDS011;8501;49.926;8.404;2024-01-30T08:41:37;54.30;;;34.27;;
16766;SDS011;8501;49.926;8.404;2024-01-30T08:44:02;51.37;;;32.20;;
16766;SDS011;8501;49.926;8.404;2024-01-30T08:46:29;50.53;;;32.03;;
16766;SDS011;8501;49.926;8.404;2024-01-30T08:48:55;50.40;;;31.87;;
16766;SDS011;8501;49.926;8.404;2024-01-30T08:51:21;53.40;;;32.87;;
16766;SDS011;8501;49.926;8.404;2024-01-30T08:53:47;54.03;;;33.63;;
16766;SDS011;8501;49.926;8.404;2024-01-30T08:56:12;55.70;;;33.97;;
16766;SDS011;8501;49.926;8.404;2024-01-30T08:58:38;57.03;;;33.73;;
16766;SDS011;8501;49.926;8.404;2024-01-30T09:01:04;55.50;;;34.37;;
16766;SDS011;8501;49.926;8.404;2024-01-30T09:03:30;55.00;;;34.13;;
16766;SDS011;8501;49.926;8.404;2024-01-30T09:05:56;54.27;;;32.80;;
16766;SDS011;8501;49.926;8.404;2024-01-30T09:08:22;49.57;;;31.20;;
16766;SDS011;8501;49.926;8.404;2024-01-30T09:10:47;56.67;;;34.40;;
16766;SDS011;8501;49.926;8.404;2024-01-30T09:13:14;55.93;;;33.10;;
16766;SDS011;8501;49.926;8.404;2024-01-30T09:15:40;51.53;;;32.83;;
16766;SDS011;8501;49.926;8.404;2024-01-30T09:18:06;53.10;;;33.37;;
16766;SDS011;8501;49.926;8.404;2024-01-30T09:20:32;51.93;;;32.90;;
16766;SDS011;8501;49.926;8.404;2024-01-30T09:22:57;53.07;;;32.50;;
16766;SDS011;8501;49.926;8.404;2024-01-30T09:25:23;53.37;;;32.43;;
16766;SDS011;8501;49.926;8.404;2024-01-30T09:27:48;55.67;;;33.77;;
16766;SDS011;8501;49.926;8.404;2024-01-30T09:30:14;48.63;;;31.60;;
16766;SDS011;8501;49.926;8.404;2024-01-30T09:32:39;52.77;;;33.07;;
16766;SDS011;8501;49.926;8.404;2024-01-30T09:35:05;54.83;;;34.33;;
16766;SDS011;8501;49.926;8.404;2024-01-30T09:37:31;53.03;;;33.87;;
16766;SDS011;8501;49.926;8.404;2024-01-30T09:39:57;58.80;;;35.57;;
16766;SDS011;8501;49.926;8.404;2024-01-30T09:42:35;59.03;;;36.23;;
16766;SDS011;8501;49.926;8.404;2024-01-30T09:45:02;58.97;;;35.03;;
16766;SDS011;8501;49.926;8.404;2024-01-30T09:47:31;57.23;;;36.13;;
16766;SDS011;8501;49.926;8.404;2024-01-30T09:49:57;61.47;;;35.83;;
16766;SDS011;8501;49.926;8.404;2024-01-30T09:52:23;54.83;;;35.33;;
16766;SDS011;8501;49.926;8.404;2024-01-30T09:54:49;54.87;;;34.80;;
16766;SDS011;8501;49.926;8.404;2024-01-30T09:57:17;53.97;;;34.37;;
16766;SDS011;8501;49.926;8.404;2024-01-30T09:59:42;54.57;;;33.87;;
16766;SDS011;8501;49.926;8.404;2024-01-30T10:02:09;53.40;;;34.37;;
16766;SDS011;8501;49.926;8.404;2024-01-30T10:04:35;53.67;;;35.10;;
16766;SDS011;8501;49.926;8.404;2024-01-30T10:07:03;55.60;;;34.27;;
16766;SDS011;8501;49.926;8.404;2024-01-30T10:09:31;48.33;;;33.27;;
16766;SDS011;8501;49.926;8.404;2024-01-30T10:11:58;51.30;;;34.23;;
16766;SDS011;8501;49.926;8.404;2024-01-30T10:14:24;50.90;;;32.77;;
16766;SDS011;8501;49.926;8.404;2024-01-30T10:16:50;51.73;;;34.00;;
16766;SDS011;8501;49.926;8.404;2024-01-30T10:19:16;56.70;;;33.53;;
16766;SDS011;8501;49.926;8.404;2024-01-30T10:21:41;55.13;;;33.67;;
16766;SDS011;8501;49.926;8.404;2024-01-30T10:24:07;52.53;;;33.33;;
16766;SDS011;8501;49.926;8.404;2024-01-30T10:26:32;47.77;;;31.23;;
16766;SDS011;8501;49.926;8.404;2024-01-30T10:28:59;55.00;;;33.07;;
16766;SDS011;8501;49.926;8.404;2024-01-30T10:31:25;51.23;;;31.87;;
16766;SDS011;8501;49.926;8.404;2024-01-30T10:33:50;50.33;;;32.10;;
16766;SDS011;8501;49.926;8.404;2024-01-30T10:36:16;49.87;;;32.70;;
16766;SDS011;8501;49.926;8.404;2024-01-30T10:38:42;52.00;;;32.63;;
16766;SDS011;8501;49.926;8.404;2024-01-30T10:41:11;49.40;;;32.07;;
16766;SDS011;8501;49.926;8.404;2024-01-30T10:43:42;51.10;;;32.23;;
16766;SDS011;8501;49.926;8.404;2024-01-30T10:46:20;52.73;;;32.30;;
16766;SDS011;8501;49.926;8.404;2024-01-30T10:48:56;49.20;;;31.57;;
16766;SDS011;8501;49.926;8.404;2024-01-30T10:51:26;55.20;;;37.13;;
16766;SDS011;8501;49.926;8.404;2024-01-30T10:53:53;57.23;;;36.60;;
16766;SDS011;8501;49.926;8.404;2024-01-30T10:56:22;53.10;;;33.83;;
16766;SDS011;8501;49.926;8.404;2024-01-30T10:58:49;54.80;;;33.07;;
16766;SDS011;8501;49.926;8.404;2024-01-30T11:01:17;54.53;;;34.03;;
16766;SDS011;8501;49.926;8.404;2024-01-30T11:03:51;54.63;;;34.77;;
16766;SDS011;8501;49.926;8.404;2024-01-30T11:06:17;61.60;;;40.00;;
16766;SDS011;8501;49.926;8.404;2024-01-30T11:08:46;57.57;;;37.07;;
16766;SDS011;8501;49.926;8.404;2024-01-30T11:14:27;57.73;;;35.83;;
16766;SDS011;8501;49.926;8.404;2024-01-30T11:16:57;63.43;;;38.33;;
16766;SDS011;8501;49.926;8.404;2024-01-30T11:19:24;52.73;;;33.40;;
16766;SDS011;8501;49.926;8.404;2024-01-30T11:21:55;51.03;;;32.30;;
16766;SDS011;8501;49.926;8.404;2024-01-30T11:24:24;54.93;;;33.87;;
16766;SDS011;8501;49.926;8.404;2024-01-30T11:26:55;51.20;;;33.20;;
16766;SDS011;8501;49.926;8.404;2024-01-30T11:29:29;53.53;;;32.97;;
16766;SDS011;8501;49.926;8.404;2024-01-30T11:31:55;51.20;;;33.33;;
16766;SDS011;8501;49.926;8.404;2024-01-30T11:34:22;52.50;;;32.50;;
16766;SDS011;8501;49.926;8.404;2024-01-30T11:36:51;50.60;;;32.43;;
16766;SDS011;8501;49.926;8.404;2024-01-30T11:39:23;54.27;;;33.20;;
16766;SDS011;8501;49.926;8.404;2024-01-30T11:41:54;51.27;;;31.83;;
16766;SDS011;8501;49.926;8.404;2024-01-30T11:44:20;51.17;;;32.90;;
16766;SDS011;8501;49.926;8.404;2024-01-30T11:46:50;53.63;;;33.00;;
16766;SDS011;8501;49.926;8.404;2024-01-30T11:49:16;53.20;;;32.67;;
16766;SDS011;8501;49.926;8.404;2024-01-30T11:51:43;52.53;;;32.33;;
16766;SDS011;8501;49.926;8.404;2024-01-30T11:54:10;50.37;;;33.47;;
16766;SDS011;8501;49.926;8.404;2024-01-30T11:56:36;48.80;;;30.17;;
16766;SDS011;8501;49.926;8.404;2024-01-30T11:59:03;48.27;;;31.67;;
16766;SDS011;8501;49.926;8.404;2024-01-30T12:01:29;48.97;;;31.57;;
16766;SDS011;8501;49.926;8.404;2024-01-30T12:03:56;47.53;;;30.70;;
16766;SDS011;8501;49.926;8.404;2024-01-30T12:06:22;50.00;;;30.37;;
16766;SDS011;8501;49.926;8.404;2024-01-30T12:08:57;51.37;;;32.73;;
16766;SDS011;8501;49.926;8.404;2024-01-30T12:11:30;48.00;;;30.20;;
16766;SDS011;8501;49.926;8.404;2024-01-30T12:13:56;47.30;;;29.93;;
16766;SDS011;8501;49.926;8.404;2024-01-30T12:16:22;49.13;;;30.67;;
16766;SDS011;8501;49.926;8.404;2024-01-30T12:18:48;46.50;;;29.73;;
16766;SDS011;8501;49.926;8.404;2024-01-30T12:21:16;46.47;;;29.27;;
16766;SDS011;8501;49.926;8.404;2024-01-30T12:23:42;47.87;;;29.70;;
16766;SDS011;8501;49.926;8.404;2024-01-30T12:26:08;47.30;;;30.40;;
16766;SDS011;8501;49.926;8.404;2024-01-30T12:28:34;46.30;;;29.17;;
16766;SDS011;8501;49.926;8.404;2024-01-30T12:31:03;46.53;;;30.27;;
16766;SDS011;8501;49.926;8.404;2024-01-30T12:33:29;45.57;;;28.63;;
16766;SDS011;8501;49.926;8.404;2024-01-30T12:35:56;43.23;;;27.97;;
16766;SDS011;8501;49.926;8.404;2024-01-30T12:38:22;45.80;;;29.60;;
16766;SDS011;8501;49.926;8.404;2024-01-30T12:40:49;45.67;;;27.90;;
16766;SDS011;8501;49.926;8.404;2024-01-30T12:43:20;42.83;;;28.00;;
16766;SDS011;8501;49.926;8.404;2024-01-30T12:45:46;46.30;;;28.17;;
16766;SDS011;8501;49.926;8.404;2024-01-30T12:48:12;43.50;;;27.87;;
16766;SDS011;8501;49.926;8.404;2024-01-30T12:50:38;43.13;;;28.43;;
16766;SDS011;8501;49.926;8.404;2024-01-30T12:53:03;46.47;;;30.23;;
16766;SDS011;8501;49.926;8.404;2024-01-30T12:55:29;44.10;;;30.73;;
16766;SDS011;8501;49.926;8.404;2024-01-30T12:57:55;47.93;;;30.87;;
16766;SDS011;8501;49.926;8.404;2024-01-30T13:00:21;53.40;;;33.13;;
16766;SDS011;8501;49.926;8.404;2024-01-30T13:02:47;55.03;;;35.57;;
16766;SDS011;8501;49.926;8.404;2024-01-30T13:05:13;58.53;;;38.07;;
16766;SDS011;8501;49.926;8.404;2024-01-30T13:07:38;58.67;;;35.83;;
16766;SDS011;8501;49.926;8.404;2024-01-30T13:10:04;47.60;;;31.80;;
16766;SDS011;8501;49.926;8.404;2024-01-30T13:12:31;43.37;;;27.90;;
16766;SDS011;8501;49.926;8.404;2024-01-30T13:15:00;43.27;;;27.13;;
16766;SDS011;8501;49.926;8.404;2024-01-30T13:17:26;42.77;;;27.53;;
16766;SDS011;8501;49.926;8.404;2024-01-30T13:19:52;43.60;;;27.70;;
16766;SDS011;8501;49.926;8.404;2024-01-30T13:22:19;42.10;;;28.17;;
16766;SDS011;8501;49.926;8.404;2024-01-30T13:24:46;52.87;;;32.57;;
16766;SDS011;8501;49.926;8.404;2024-01-30T13:27:12;55.47;;;34.70;;
16766;SDS011;8501;49.926;8.404;2024-01-30T13:29:37;48.77;;;30.07;;
16766;SDS011;8501;49.926;8.404;2024-01-30T13:32:03;45.27;;;27.93;;
16766;SDS011;8501;49.926;8.404;2024-01-30T13:34:29;43.60;;;27.30;;
16766;SDS011;8501;49.926;8.404;2024-01-30T13:36:55;42.40;;;27.43;;
16766;SDS011;8501;49.926;8.404;2024-01-30T13:39:20;42.63;;;27.10;;
16766;SDS011;8501;49.926;8.404;2024-01-30T13:41:46;41.30;;;26.73;;
16766;SDS011;8501;49.926;8.404;2024-01-30T13:44:13;42.07;;;27.30;;
16766;SDS011;8501;49.926;8.404;2024-01-30T13:46:41;45.83;;;28.83;;
16766;SDS011;8501;49.926;8.404;2024-01-30T13:49:06;42.97;;;27.50;;
16766;SDS011;8501;49.926;8.404;2024-01-30T13:51:32;45.80;;;27.87;;
16766;SDS011;8501;49.926;8.404;2024-01-30T13:53:57;43.27;;;27.43;;
16766;SDS011;8501;49.926;8.404;2024-01-30T13:56:23;40.23;;;27.37;;
16766;SDS011;8501;49.926;8.404;2024-01-30T13:58:49;37.90;;;25.80;;
16766;SDS011;8501;49.926;8.404;2024-01-30T14:01:15;40.57;;;26.70;;
16766;SDS011;8501;49.926;8.404;2024-01-30T14:03:41;42.13;;;26.67;;
16766;SDS011;8501;49.926;8.404;2024-01-30T14:06:07;40.43;;;26.03;;
16766;SDS011;8501;49.926;8.404;2024-01-30T14:08:32;43.07;;;26.40;;
16766;SDS011;8501;49.926;8.404;2024-01-30T14:10:58;40.60;;;26.50;;
16766;SDS011;8501;49.926;8.404;2024-01-30T14:13:23;38.07;;;25.70;;
16766;SDS011;8501;49.926;8.404;2024-01-30T14:15:50;44.23;;;26.57;;
16766;SDS011;8501;49.926;8.404;2024-01-30T14:18:16;39.83;;;25.77;;
16766;SDS011;8501;49.926;8.404;2024-01-30T14:20:42;40.43;;;25.80;;
16766;SDS011;8501;49.926;8.404;2024-01-30T14:23:08;40.40;;;26.83;;
16766;SDS011;8501;49.926;8.404;2024-01-30T14:25:33;43.17;;;26.57;;
16766;SDS011;8501;49.926;8.404;2024-01-30T14:27:59;40.10;;;25.67;;
16766;SDS011;8501;49.926;8.404;2024-01-30T14:30:24;38.87;;;25.07;;